createdAt,value
2023-02-02T00:01:01.614Z,102137.03
2023-02-02T00:03:28.133Z,102128.66
2023-02-02T00:05:54.787Z,102129.66
2023-02-02T00:08:22.181Z,102131.75
2023-02-02T00:10:50.403Z,102129.03
2023-02-02T00:13:17.467Z,102126.72
2023-02-02T00:15:44.030Z,102134.66
2023-02-02T00:18:10.536Z,102130.06
2023-02-02T00:20:37.160Z,102130.75
2023-02-02T00:23:04.279Z,102118.56
2023-02-02T00:25:31.276Z,102138.50
2023-02-02T00:27:58.035Z,102141.41
2023-02-02T00:30:24.702Z,102133.00
2023-02-02T00:32:52.973Z,102138.06
2023-02-02T00:35:19.769Z,102147.53
2023-02-02T00:37:46.327Z,102150.03
2023-02-02T00:40:12.912Z,102142.13
2023-02-02T00:42:39.648Z,102148.81
2023-02-02T00:45:15.993Z,102152.38
2023-02-02T00:47:48.833Z,102155.28
2023-02-02T00:50:19.290Z,102141.50
2023-02-02T00:52:47.268Z,102157.00
2023-02-02T00:55:15.417Z,102151.94
2023-02-02T00:57:44.228Z,102149.84
2023-02-02T01:00:15.611Z,102156.13
2023-02-02T01:02:43.020Z,102147.31
2023-02-02T01:05:11.326Z,102154.72
2023-02-02T01:07:38.441Z,102145.25
2023-02-02T01:10:06.464Z,102145.25
2023-02-02T01:12:32.964Z,102152.38
2023-02-02T01:14:59.522Z,102142.53
2023-02-02T01:17:26.217Z,102145.88
2023-02-02T01:19:52.722Z,102150.75
2023-02-02T01:22:19.392Z,102143.16
2023-02-02T01:24:46.441Z,102137.94
2023-02-02T01:27:13.111Z,102131.25
2023-02-02T01:29:39.663Z,102142.78
2023-02-02T01:32:06.289Z,102136.06
2023-02-02T01:34:33.052Z,102154.72
2023-02-02T01:36:59.727Z,102144.84
2023-02-02T01:39:26.434Z,102145.25
2023-02-02T01:41:52.983Z,102138.38
2023-02-02T01:44:56.902Z,102153.69
2023-02-02T01:47:27.180Z,102145.25
2023-02-02T01:49:55.355Z,102168.50
2023-02-02T01:52:24.012Z,102152.38
2023-02-02T01:54:53.971Z,102149.91
2023-02-02T01:57:26.085Z,102159.13
2023-02-02T01:59:55.443Z,102138.78
2023-02-02T02:02:24.591Z,102148.59
2023-02-02T02:04:51.674Z,102149.22
2023-02-02T02:07:18.531Z,102151.31
2023-02-02T02:09:45.182Z,102146.28
2023-02-02T02:12:14.513Z,102154.44
2023-02-02T02:15:03.815Z,102148.56
2023-02-02T02:17:52.369Z,102148.56
2023-02-02T02:21:14.602Z,102158.59
2023-02-02T02:24:22.064Z,102159.03
2023-02-02T02:26:59.670Z,102146.69
2023-02-02T02:30:17.089Z,102146.69
2023-02-02T02:32:50.326Z,102153.53
2023-02-02T02:35:34.536Z,102158.81
2023-02-02T02:38:15.078Z,102143.50
2023-02-02T02:40:45.155Z,102163.19
2023-02-02T02:43:21.360Z,102149.78
2023-02-02T02:45:49.597Z,102159.63
2023-02-02T02:48:16.781Z,102147.19
2023-02-02T02:50:43.850Z,102159.38
2023-02-02T02:53:18.668Z,102151.41
2023-02-02T02:55:51.123Z,102160.03
2023-02-02T02:58:28.533Z,102157.75
2023-02-02T03:01:18.924Z,102160.69
2023-02-02T03:04:00.528Z,102145.56
2023-02-02T03:06:36.071Z,102144.06
2023-02-02T03:09:12.319Z,102138.00
2023-02-02T03:11:38.968Z,102145.09
2023-02-02T03:14:09.576Z,102141.75
2023-02-02T03:16:37.456Z,102153.28
2023-02-02T03:19:05.319Z,102136.69
2023-02-02T03:21:32.907Z,102134.22
2023-02-02T03:24:00.097Z,102124.38
2023-02-02T03:26:27.225Z,102125.41
2023-02-02T03:28:56.144Z,102124.56
2023-02-02T03:31:23.041Z,102125.41
2023-02-02T03:33:49.531Z,102142.78
2023-02-02T03:36:16.034Z,102131.88
2023-02-02T03:38:42.510Z,102134.63
2023-02-02T03:41:08.984Z,102143.81
2023-02-02T03:43:35.549Z,102148.41
2023-02-02T03:46:05.466Z,102150.56
2023-02-02T03:48:36.135Z,102156.84
2023-02-02T03:51:11.721Z,102188.66
2023-02-02T03:53:39.618Z,102168.75
2023-02-02T03:56:06.949Z,102169.59
2023-02-02T03:58:33.878Z,102162.50
2023-02-02T04:01:05.001Z,102166.88
2023-02-02T04:03:31.739Z,102164.84
2023-02-02T04:05:58.268Z,102154.97
2023-02-02T04:08:24.799Z,102159.78
2023-02-02T04:10:51.375Z,102165.22
2023-02-02T04:13:17.956Z,102164.16
2023-02-02T04:15:44.522Z,102160.81
2023-02-02T04:18:11.171Z,102171.88
2023-02-02T04:20:37.695Z,102178.00
2023-02-02T04:23:04.189Z,102178.16
2023-02-02T04:25:30.672Z,102176.13
2023-02-02T04:27:57.196Z,102165.22
2023-02-02T04:30:23.702Z,102175.25
2023-02-02T04:32:51.376Z,102179.41
2023-02-02T04:35:17.943Z,102177.59
2023-02-02T04:37:44.428Z,102170.00
2023-02-02T04:40:11.693Z,102181.56
2023-02-02T04:42:38.169Z,102177.13
2023-02-02T04:45:05.139Z,102169.81
2023-02-02T04:47:31.672Z,102159.97
2023-02-02T04:49:58.208Z,102172.72
2023-02-02T04:52:24.794Z,102156.78
2023-02-02T04:54:51.344Z,102164.75
2023-02-02T04:57:17.997Z,102163.94
2023-02-02T04:59:44.529Z,102173.75
2023-02-02T05:02:11.084Z,102170.19
2023-02-02T05:04:37.807Z,102181.06
2023-02-02T05:07:04.426Z,102173.97
2023-02-02T05:09:31.096Z,102171.03
2023-02-02T05:11:57.599Z,102191.16
2023-02-02T05:14:24.081Z,102188.22
2023-02-02T05:16:50.639Z,102187.19
2023-02-02T05:19:17.194Z,102187.00
2023-02-02T05:21:45.294Z,102184.00
2023-02-02T05:24:12.535Z,102187.38
2023-02-02T05:26:39.296Z,102183.44
2023-02-02T05:29:06.743Z,102183.22
2023-02-02T05:31:33.587Z,102197.41
2023-02-02T05:34:00.410Z,102190.34
2023-02-02T05:36:27.342Z,102199.78
2023-02-02T05:38:53.852Z,102197.28
2023-02-02T05:41:20.392Z,102194.56
2023-02-02T05:43:47.003Z,102206.69
2023-02-02T05:46:13.720Z,102199.38
2023-02-02T05:48:40.299Z,102202.94
2023-02-02T05:51:11.998Z,102188.66
2023-02-02T05:53:38.477Z,102198.34
2023-02-02T05:56:05.259Z,102193.94
2023-02-02T05:58:31.775Z,102198.53
2023-02-02T06:00:58.330Z,102201.25
2023-02-02T06:03:25.035Z,102199.56
2023-02-02T06:05:51.735Z,102202.94
2023-02-02T06:08:18.310Z,102202.28
2023-02-02T06:10:44.904Z,102190.75
2023-02-02T06:13:11.649Z,102189.50
2023-02-02T06:15:38.558Z,102192.91
2023-02-02T06:18:06.823Z,102205.00
2023-02-02T06:20:33.307Z,102204.59
2023-02-02T06:22:59.907Z,102200.41
2023-02-02T06:25:26.930Z,102208.78
2023-02-02T06:27:57.949Z,102219.66
2023-02-02T06:30:24.984Z,102218.44
2023-02-02T06:32:51.511Z,102216.75
2023-02-02T06:35:18.064Z,102207.09
2023-02-02T06:37:44.721Z,102216.28
2023-02-02T06:40:12.197Z,102208.50
2023-02-02T06:42:38.758Z,102202.03
2023-02-02T06:45:05.759Z,102213.94
2023-02-02T06:47:33.270Z,102224.63
2023-02-02T06:49:59.736Z,102229.25
2023-02-02T06:52:26.700Z,102221.66
2023-02-02T06:54:53.273Z,102236.75
2023-02-02T06:57:19.891Z,102235.91
2023-02-02T06:59:47.168Z,102239.28
2023-02-02T07:02:13.797Z,102230.66
2023-02-02T07:04:40.368Z,102239.47
2023-02-02T07:07:06.945Z,102228.69
2023-02-02T07:09:34.270Z,102242.59
2023-02-02T07:12:00.791Z,102239.47
2023-02-02T07:14:27.308Z,102252.44
2023-02-02T07:16:53.853Z,102249.72
2023-02-02T07:19:20.444Z,102238.00
2023-02-02T07:21:46.929Z,102248.03
2023-02-02T07:24:13.469Z,102238.84
2023-02-02T07:26:40.144Z,102253.47
2023-02-02T07:29:06.816Z,102240.72
2023-02-02T07:31:36.042Z,102244.47
2023-02-02T07:34:03.304Z,102236.28
2023-02-02T07:36:29.853Z,102245.69
2023-02-02T07:38:59.691Z,102252.16
2023-02-02T07:41:26.261Z,102249.44
2023-02-02T07:43:52.894Z,102261.34
2023-02-02T07:46:20.362Z,102257.16
2023-02-02T07:48:47.404Z,102257.16
2023-02-02T07:51:17.478Z,102274.50
2023-02-02T07:53:45.873Z,102264.19
2023-02-02T07:56:16.787Z,102282.84
2023-02-02T07:58:43.835Z,102283.91
2023-02-02T08:01:12.182Z,102273.00
2023-02-02T08:03:39.836Z,102262.53
2023-02-02T08:06:10.268Z,102264.84
2023-02-02T08:08:36.925Z,102265.88
2023-02-02T08:11:03.491Z,102287.25
2023-02-02T08:13:29.979Z,102282.66
2023-02-02T08:15:59.361Z,102299.00
2023-02-02T08:18:25.903Z,102286.06
2023-02-02T08:20:52.722Z,102286.25
2023-02-02T08:23:23.563Z,102295.72
2023-02-02T08:25:50.835Z,102278.72
2023-02-02T08:28:18.795Z,102291.97
2023-02-02T08:30:45.976Z,102291.13
2023-02-02T08:33:12.928Z,102295.72
2023-02-02T08:35:43.376Z,102303.50
2023-02-02T08:38:10.504Z,102288.19
2023-02-02T08:40:37.085Z,102299.53
2023-02-02T08:43:04.177Z,102311.28
2023-02-02T08:46:13.249Z,102325.94
2023-02-02T08:48:19.771Z,102321.81
2023-02-02T08:50:53.023Z,102339.16
2023-02-02T08:53:19.685Z,102339.81
2023-02-02T08:55:46.212Z,102342.53
2023-02-02T08:58:12.805Z,102342.19
2023-02-02T09:00:39.418Z,102352.22
2023-02-02T09:03:05.971Z,102364.59
2023-02-02T09:05:32.568Z,102363.75
2023-02-02T09:07:59.376Z,102364.22
2023-02-02T09:10:25.930Z,102375.56
2023-02-02T09:12:52.501Z,102386.28
2023-02-02T09:15:19.045Z,102379.13
2023-02-02T09:17:45.544Z,102387.50
2023-02-02T09:20:12.525Z,102383.16
2023-02-02T09:22:38.997Z,102378.75
2023-02-02T09:25:05.911Z,102378.56
2023-02-02T09:27:37.573Z,102382.63
2023-02-02T09:30:04.480Z,102387.88
2023-02-02T09:32:31.016Z,102398.78
2023-02-02T09:34:57.538Z,102402.31
2023-02-02T09:37:24.125Z,102393.31
2023-02-02T09:39:50.663Z,102410.31
2023-02-02T09:42:29.273Z,102407.19
2023-02-02T09:44:59.582Z,102406.63
2023-02-02T09:47:51.143Z,102425.31
2023-02-02T09:50:39.976Z,102416.97
2023-02-02T09:53:11.436Z,102414.25
2023-02-02T09:55:47.922Z,102423.72
2023-02-02T09:58:18.644Z,102439.22
2023-02-02T10:00:53.072Z,102440.94
2023-02-02T10:03:26.229Z,102441.78
2023-02-02T10:06:04.288Z,102445.31
2023-02-02T10:08:45.691Z,102437.13
2023-02-02T10:11:30.889Z,102435.94
2023-02-02T10:14:10.081Z,102432.19
2023-02-02T10:16:39.566Z,102443.91
2023-02-02T10:19:11.082Z,102442.03
2023-02-02T10:21:50.996Z,102433.00
2023-02-02T10:24:20.582Z,102424.00
2023-02-02T10:26:50.713Z,102441.00
2023-02-02T10:29:22.239Z,102447.69
2023-02-02T10:32:10.005Z,102437.44
2023-02-02T10:34:45.528Z,102432.19
2023-02-02T10:37:30.831Z,102449.81
2023-02-02T10:40:35.142Z,102444.84
2023-02-02T10:43:23.638Z,102437.50
2023-02-02T10:45:51.722Z,102443.63
2023-02-02T10:48:30.313Z,102448.91
2023-02-02T10:50:59.501Z,102448.50
2023-02-02T10:53:29.582Z,102456.47
2023-02-02T10:56:05.916Z,102457.16
2023-02-02T10:58:39.073Z,102457.16
2023-02-02T11:01:11.320Z,102463.94
2023-02-02T11:03:40.092Z,102458.47
2023-02-02T11:06:27.174Z,102454.91
2023-02-02T11:08:58.060Z,102453.03
2023-02-02T11:11:29.503Z,102462.22
2023-02-02T11:14:08.265Z,102463.09
2023-02-02T11:16:43.578Z,102451.97
2023-02-02T11:19:19.859Z,102458.47
2023-02-02T11:21:56.337Z,102452.53
2023-02-02T11:24:46.174Z,102449.59
2023-02-02T11:27:22.537Z,102439.94
2023-02-02T11:29:52.926Z,102448.56
2023-02-02T11:32:25.380Z,102447.59
2023-02-02T11:35:15.453Z,102448.22
2023-02-02T11:38:01.776Z,102441.75
2023-02-02T11:40:35.661Z,102444.47
2023-02-02T11:43:19.670Z,102447.84
2023-02-02T11:45:53.647Z,102456.84
2023-02-02T11:48:23.683Z,102441.75
2023-02-02T11:50:53.606Z,102460.25
2023-02-02T11:53:46.865Z,102452.94
2023-02-02T11:56:23.911Z,102446.16
2023-02-02T11:58:52.168Z,102456.69
2023-02-02T12:01:32.400Z,102440.50
2023-02-02T12:04:04.409Z,102427.09
2023-02-02T12:06:36.495Z,102443.22
2023-02-02T12:09:12.299Z,102434.22
2023-02-02T12:11:59.178Z,102437.59
2023-02-02T12:14:47.121Z,102443.69
2023-02-02T12:17:21.107Z,102442.66
2023-02-02T12:20:09.177Z,102447.25
2023-02-02T12:22:54.928Z,102433.84
2023-02-02T12:25:45.328Z,102437.50
2023-02-02T12:28:39.028Z,102441.44
2023-02-02T12:31:29.332Z,102445.66
2023-02-02T12:34:09.996Z,102442.56
2023-02-02T12:36:45.970Z,102442.38
2023-02-02T12:39:27.653Z,102437.75
2023-02-02T12:42:06.160Z,102445.94
2023-02-02T12:44:50.800Z,102431.81
2023-02-02T12:47:45.484Z,102434.38
2023-02-02T12:50:30.544Z,102431.47
2023-02-02T12:53:19.039Z,102432.69
2023-02-02T12:55:57.115Z,102422.16
2023-02-02T12:58:47.641Z,102432.22
2023-02-02T13:01:51.718Z,102420.47
2023-02-02T13:04:58.371Z,102420.69
2023-02-02T13:07:42.408Z,102422.09
2023-02-02T13:10:23.246Z,102417.84
2023-02-02T13:12:57.566Z,102422.34
2023-02-02T13:15:32.644Z,102421.31
2023-02-02T13:18:03.793Z,102433.25
2023-02-02T13:20:49.520Z,102428.66
2023-02-02T13:23:25.485Z,102437.41
2023-02-02T13:25:59.416Z,102442.84
2023-02-02T13:28:36.873Z,102441.94
2023-02-02T13:31:08.251Z,102425.78
2023-02-02T13:33:36.810Z,102425.13
2023-02-02T13:36:30.624Z,102429.72
2023-02-02T13:39:01.551Z,102434.25
2023-02-02T13:41:28.984Z,102427.31
2023-02-02T13:44:13.677Z,102428.16
2023-02-02T13:47:06.322Z,102421.28
2023-02-02T13:49:53.953Z,102429.19
2023-02-02T13:53:05.399Z,102420.63
2023-02-02T13:55:53.817Z,102429.19
2023-02-02T13:58:54.271Z,102429.81
2023-02-02T14:01:22.749Z,102425.78
2023-02-02T14:03:55.248Z,102434.16
2023-02-02T14:06:24.363Z,102426.16
2023-02-02T14:09:05.714Z,102436.69
2023-02-02T14:11:35.376Z,102417.16
2023-02-02T14:14:32.822Z,102435.00
2023-02-02T14:17:07.567Z,102431.44
2023-02-02T14:19:41.999Z,102437.53
2023-02-02T14:22:08.688Z,102443.81
2023-02-02T14:24:35.107Z,102446.53
2023-02-02T14:27:05.510Z,102447.56
2023-02-02T14:29:32.065Z,102444.38
2023-02-02T14:32:23.567Z,102459.25
2023-02-02T14:34:58.110Z,102463.38
2023-02-02T14:37:24.577Z,102454.53
2023-02-02T14:40:06.465Z,102458.31
2023-02-02T14:43:22.654Z,102452.19
2023-02-02T14:46:10.591Z,102456.53
2023-02-02T14:48:39.058Z,102444.88
2023-02-02T14:51:14.701Z,102468.63
2023-02-02T14:53:49.539Z,102476.13
2023-02-02T14:56:17.446Z,102459.50
2023-02-02T14:59:00.268Z,102467.28
2023-02-02T15:01:30.937Z,102465.16
2023-02-02T15:04:00.082Z,102477.53
2023-02-02T15:06:44.851Z,102470.22
2023-02-02T15:09:20.561Z,102475.00
2023-02-02T15:12:01.004Z,102467.88
2023-02-02T15:14:36.378Z,102462.13
2023-02-02T15:17:27.175Z,102473.13
2023-02-02T15:20:20.929Z,102469.28
2023-02-02T15:22:47.480Z,102464.47
2023-02-02T15:25:24.756Z,102472.66
2023-02-02T15:28:21.357Z,102474.34
2023-02-02T15:30:54.472Z,102470.13
2023-02-02T15:33:36.630Z,102476.59
2023-02-02T15:36:12.049Z,102471.16
2023-02-02T15:38:41.694Z,102472.19
2023-02-02T15:41:19.730Z,102476.59
2023-02-02T15:43:46.835Z,102478.31
2023-02-02T15:46:24.036Z,102484.75
2023-02-02T15:49:32.797Z,102482.69
2023-02-02T15:52:09.899Z,102491.22
2023-02-02T15:54:39.827Z,102477.53
2023-02-02T15:57:33.279Z,102491.91
2023-02-02T16:00:01.850Z,102488.69
2023-02-02T16:02:42.974Z,102490.59
2023-02-02T16:05:31.189Z,102503.16
2023-02-02T16:08:06.361Z,102509.81
2023-02-02T16:10:34.109Z,102521.56
2023-02-02T16:13:00.997Z,102506.25
2023-02-02T16:15:31.605Z,102516.50
2023-02-02T16:18:04.303Z,102505.28
2023-02-02T16:20:34.188Z,102509.34
2023-02-02T16:23:04.740Z,102514.78
2023-02-02T16:25:37.095Z,102516.50
2023-02-02T16:28:04.313Z,102516.50
2023-02-02T16:30:35.504Z,102508.50
2023-02-02T16:33:32.837Z,102516.28
2023-02-02T16:35:59.343Z,102516.50
2023-02-02T16:38:31.200Z,102527.16
2023-02-02T16:41:08.073Z,102539.00
2023-02-02T16:43:36.397Z,102538.91
2023-02-02T16:46:12.483Z,102547.06
2023-02-02T16:48:42.544Z,102540.31
2023-02-02T16:51:17.873Z,102550.47
2023-02-02T16:53:47.162Z,102553.19
2023-02-02T16:56:49.200Z,102552.16
2023-02-02T16:59:21.950Z,102564.25
2023-02-02T17:01:52.189Z,102556.41
2023-02-02T17:04:47.983Z,102559.59
2023-02-02T17:07:16.683Z,102561.47
2023-02-02T17:09:45.150Z,102563.16
2023-02-02T17:12:34.976Z,102564.00
2023-02-02T17:15:24.440Z,102562.13
2023-02-02T17:17:52.020Z,102565.69
2023-02-02T17:20:19.563Z,102565.31
2023-02-02T17:22:56.435Z,102569.94
2023-02-02T17:25:28.942Z,102571.63
2023-02-02T17:27:58.426Z,102576.03
2023-02-02T17:30:25.379Z,102572.47
2023-02-02T17:32:52.001Z,102574.16
2023-02-02T17:35:24.372Z,102585.53
2023-02-02T17:37:54.481Z,102577.19
2023-02-02T17:40:23.909Z,102577.53
2023-02-02T17:42:53.037Z,102579.72
2023-02-02T17:45:34.244Z,102579.53
2023-02-02T17:48:01.239Z,102580.56
2023-02-02T17:50:29.270Z,102577.84
2023-02-02T17:52:56.381Z,102576.81
2023-02-02T17:55:25.058Z,102590.44
2023-02-02T17:57:53.128Z,102566.63
2023-02-02T18:00:23.128Z,102583.97
2023-02-02T18:02:51.781Z,102568.44
2023-02-02T18:05:18.354Z,102570.34
2023-02-02T18:07:44.927Z,102570.13
2023-02-02T18:10:15.776Z,102575.22
2023-02-02T18:12:42.632Z,102573.16
2023-02-02T18:15:14.256Z,102577.59
2023-02-02T18:17:41.559Z,102575.69
2023-02-02T18:20:09.944Z,102572.78
2023-02-02T18:22:36.670Z,102565.09
2023-02-02T18:25:04.826Z,102556.06
2023-02-02T18:27:31.378Z,102555.22
2023-02-02T18:29:57.907Z,102553.16
2023-02-02T18:32:25.033Z,102548.56
2023-02-02T18:34:55.412Z,102551.28
2023-02-02T18:37:23.916Z,102545.63
2023-02-02T18:39:50.617Z,102541.03
2023-02-02T18:42:17.261Z,102544.63
2023-02-02T18:44:44.741Z,102544.16
2023-02-02T18:47:11.271Z,102555.13
2023-02-02T18:49:37.760Z,102544.22
2023-02-02T18:52:04.339Z,102546.59
2023-02-02T18:54:32.290Z,102545.56
2023-02-02T18:56:58.777Z,102543.69
2023-02-02T18:59:25.293Z,102546.41
2023-02-02T19:01:52.059Z,102545.16
2023-02-02T19:04:18.656Z,102549.59
2023-02-02T19:07:03.970Z,102553.84
2023-02-02T19:09:30.480Z,102560.63
2023-02-02T19:11:57.113Z,102556.84
2023-02-02T19:14:36.750Z,102552.44
2023-02-02T19:17:21.988Z,102552.06
2023-02-02T19:19:49.760Z,102545.28
2023-02-02T19:22:24.195Z,102552.91
2023-02-02T19:24:50.827Z,102544.72
2023-02-02T19:27:20.227Z,102545.38
2023-02-02T19:29:50.627Z,102551.50
2023-02-02T19:32:21.514Z,102527.72
2023-02-02T19:34:49.066Z,102541.81
2023-02-02T19:37:24.118Z,102536.19
2023-02-02T19:39:54.014Z,102537.88
2023-02-02T19:42:20.490Z,102530.91
2023-02-02T19:44:47.040Z,102540.94
2023-02-02T19:47:27.822Z,102534.47
2023-02-02T19:49:54.419Z,102525.44
2023-02-02T19:52:25.802Z,102538.22
2023-02-02T19:54:53.698Z,102533.63
2023-02-02T19:57:36.356Z,102532.78
2023-02-02T20:00:18.896Z,102540.78
2023-02-02T20:03:00.149Z,102534.28
2023-02-02T20:05:48.304Z,102553.16
2023-02-02T20:08:34.172Z,102545.69
2023-02-02T20:11:32.051Z,102536.47
2023-02-02T20:14:00.627Z,102547.38
2023-02-02T20:16:36.686Z,102553.50
2023-02-02T20:19:03.373Z,102549.06
2023-02-02T20:21:42.473Z,102552.63
2023-02-02T20:24:24.773Z,102565.63
2023-02-02T20:26:53.785Z,102549.28
2023-02-02T20:29:27.813Z,102562.41
2023-02-02T20:31:56.383Z,102561.19
2023-02-02T20:34:32.874Z,102568.16
2023-02-02T20:37:05.494Z,102556.84
2023-02-02T20:39:37.519Z,102567.59
2023-02-02T20:42:04.462Z,102568.16
2023-02-02T20:44:33.327Z,102568.66
2023-02-02T20:47:00.837Z,102567.84
2023-02-02T20:49:31.471Z,102562.06
2023-02-02T20:51:59.926Z,102573.31
2023-02-02T20:54:26.700Z,102574.97
2023-02-02T20:56:54.258Z,102573.47
2023-02-02T20:59:20.824Z,102573.66
2023-02-02T21:01:49.737Z,102567.19
2023-02-02T21:04:17.256Z,102560.03
2023-02-02T21:06:43.741Z,102558.53
2023-02-02T21:09:11.478Z,102566.16
2023-02-02T21:11:38.421Z,102566.16
2023-02-02T21:14:05.440Z,102555.44
2023-02-02T21:16:32.064Z,102578.41
2023-02-02T21:18:58.729Z,102575.69
2023-02-02T21:21:25.461Z,102574.97
2023-02-02T21:23:52.049Z,102562.50
2023-02-02T21:26:21.946Z,102568.16
2023-02-02T21:28:49.028Z,102569.38
2023-02-02T21:31:17.033Z,102575.94
2023-02-02T21:33:45.203Z,102583.28
2023-02-02T21:36:15.849Z,102573.41
2023-02-02T21:38:42.338Z,102567.97
2023-02-02T21:41:14.586Z,102595.00
2023-02-02T21:43:42.049Z,102584.31
2023-02-02T21:46:17.760Z,102585.16
2023-02-02T21:48:44.734Z,102575.94
2023-02-02T21:51:25.307Z,102578.66
2023-02-02T21:53:52.006Z,102566.25
2023-02-02T21:56:27.183Z,102565.03
2023-02-02T21:58:56.931Z,102568.34
2023-02-02T22:01:36.545Z,102567.41
2023-02-02T22:04:03.397Z,102571.63
2023-02-02T22:06:33.358Z,102575.38
2023-02-02T22:09:11.887Z,102560.09
2023-02-02T22:11:59.188Z,102559.22
2023-02-02T22:14:35.733Z,102565.72
2023-02-02T22:17:09.018Z,102578.94
2023-02-02T22:19:38.658Z,102587.34
2023-02-02T22:22:23.641Z,102570.13
2023-02-02T22:25:03.488Z,102545.84
2023-02-02T22:27:42.838Z,102559.69
2023-02-02T22:30:29.759Z,102557.16
2023-02-02T22:32:56.487Z,102555.44
2023-02-02T22:35:22.963Z,102568.59
2023-02-02T22:37:49.685Z,102566.34
2023-02-02T22:40:16.600Z,102553.97
2023-02-02T22:42:43.584Z,102568.44
2023-02-02T22:45:10.456Z,102560.81
2023-02-02T22:47:37.370Z,102559.13
2023-02-02T22:50:04.025Z,102570.69
2023-02-02T22:52:30.510Z,102571.91
2023-02-02T22:54:57.036Z,102567.50
2023-02-02T22:57:23.508Z,102565.78
2023-02-02T22:59:50.006Z,102562.91
2023-02-02T23:02:16.483Z,102561.34
2023-02-02T23:04:42.962Z,102570.22
2023-02-02T23:07:09.448Z,102562.06
2023-02-02T23:09:35.970Z,102552.31
2023-02-02T23:12:02.469Z,102563.53
2023-02-02T23:14:28.974Z,102533.06
2023-02-02T23:16:55.455Z,102527.78
2023-02-02T23:19:21.932Z,102536.81
2023-02-02T23:21:48.449Z,102532.06
2023-02-02T23:24:14.992Z,102518.44
2023-02-02T23:26:41.506Z,102522.16
2023-02-02T23:29:07.987Z,102495.28
2023-02-02T23:31:34.622Z,102484.00
2023-02-02T23:34:01.182Z,102477.25
2023-02-02T23:36:27.777Z,102478.94
2023-02-02T23:38:54.283Z,102483.38
2023-02-02T23:41:20.993Z,102474.91
2023-02-02T23:43:49.698Z,102481.22
2023-02-02T23:46:17.236Z,102487.50
2023-02-02T23:48:43.848Z,102496.16
2023-02-02T23:51:11.194Z,102497.34
2023-02-02T23:53:38.355Z,102487.13
2023-02-02T23:56:05.237Z,102493.59
2023-02-02T23:58:31.769Z,102479.97
